sensor_id;sensor_type;location;lat;lon;timestamp;P1;durP1;ratioP1;P2;durP2;ratioP2
76202;SDS011;64985;46.364;17.008;2023-02-26T00:00:25;3.50;;;1.80;;
76202;SDS011;64985;46.364;17.008;2023-02-26T00:03:27;3.88;;;1.83;;
76202;SDS011;64985;46.364;17.008;2023-02-26T00:06:31;2.38;;;1.65;;
76202;SDS011;64985;46.364;17.008;2023-02-26T00:09:34;3.13;;;1.80;;
76202;SDS011;64985;46.364;17.008;2023-02-26T00:12:37;2.58;;;1.90;;
76202;SDS011;64985;46.364;17.008;2023-02-26T00:15:39;2.83;;;1.90;;
76202;SDS011;64985;46.364;17.008;2023-02-26T00:18:42;4.00;;;1.98;;
76202;SDS011;64985;46.364;17.008;2023-02-26T00:21:44;3.58;;;2.03;;
76202;SDS011;64985;46.364;17.008;2023-02-26T00:24:47;5.25;;;2.25;;
76202;SDS011;64985;46.364;17.008;2023-02-26T00:27:49;3.78;;;2.10;;
76202;SDS011;64985;46.364;17.008;2023-02-26T00:30:51;4.13;;;2.50;;
76202;SDS011;64985;46.364;17.008;2023-02-26T00:33:54;4.40;;;2.38;;
76202;SDS011;64985;46.364;17.008;2023-02-26T00:43:24;5.40;;;2.67;;
76202;SDS011;64985;46.364;17.008;2023-02-26T00:49:56;4.15;;;2.65;;
76202;SDS011;64985;46.364;17.008;2023-02-26T00:56:38;5.55;;;2.92;;
76202;SDS011;64985;46.364;17.008;2023-02-26T00:59:40;6.20;;;2.90;;
76202;SDS011;64985;46.364;17.008;2023-02-26T01:02:43;7.45;;;4.20;;
76202;SDS011;64985;46.364;17.008;2023-02-26T01:05:45;6.30;;;3.72;;
76202;SDS011;64985;46.364;17.008;2023-02-26T01:08:58;7.97;;;3.72;;
76202;SDS011;64985;46.364;17.008;2023-02-26T01:12:10;7.10;;;3.88;;
76202;SDS011;64985;46.364;17.008;2023-02-26T01:15:13;9.57;;;4.75;;
76202;SDS011;64985;46.364;17.008;2023-02-26T01:18:25;8.60;;;4.82;;
76202;SDS011;64985;46.364;17.008;2023-02-26T01:21:35;6.90;;;4.20;;
76202;SDS011;64985;46.364;17.008;2023-02-26T01:24:42;10.35;;;4.88;;
76202;SDS011;64985;46.364;17.008;2023-02-26T01:27:45;9.43;;;4.70;;
76202;SDS011;64985;46.364;17.008;2023-02-26T01:30:49;9.57;;;4.72;;
76202;SDS011;64985;46.364;17.008;2023-02-26T01:33:54;7.97;;;4.63;;
76202;SDS011;64985;46.364;17.008;2023-02-26T01:37:20;9.05;;;4.97;;
76202;SDS011;64985;46.364;17.008;2023-02-26T01:47:27;7.90;;;4.70;;
76202;SDS011;64985;46.364;17.008;2023-02-26T01:50:33;9.13;;;4.40;;
76202;SDS011;64985;46.364;17.008;2023-02-26T01:53:37;8.30;;;4.85;;
76202;SDS011;64985;46.364;17.008;2023-02-26T01:56:39;7.32;;;4.65;;
76202;SDS011;64985;46.364;17.008;2023-02-26T01:59:47;7.40;;;4.47;;
76202;SDS011;64985;46.364;17.008;2023-02-26T02:02:52;8.35;;;4.85;;
76202;SDS011;64985;46.364;17.008;2023-02-26T02:05:55;8.60;;;5.00;;
76202;SDS011;64985;46.364;17.008;2023-02-26T02:09:04;8.80;;;5.03;;
76202;SDS011;64985;46.364;17.008;2023-02-26T02:16:10;10.00;;;4.93;;
76202;SDS011;64985;46.364;17.008;2023-02-26T02:19:52;9.65;;;5.07;;
76202;SDS011;64985;46.364;17.008;2023-02-26T02:29:18;9.02;;;4.72;;
76202;SDS011;64985;46.364;17.008;2023-02-26T02:32:38;11.67;;;5.27;;
76202;SDS011;64985;46.364;17.008;2023-02-26T02:38:58;9.95;;;4.95;;
76202;SDS011;64985;46.364;17.008;2023-02-26T02:45:18;8.40;;;4.78;;
76202;SDS011;64985;46.364;17.008;2023-02-26T02:48:43;11.38;;;5.80;;
76202;SDS011;64985;46.364;17.008;2023-02-26T02:51:54;10.85;;;5.40;;
76202;SDS011;64985;46.364;17.008;2023-02-26T02:55:06;10.65;;;5.28;;
76202;SDS011;64985;46.364;17.008;2023-02-26T02:58:27;10.82;;;5.55;;
76202;SDS011;64985;46.364;17.008;2023-02-26T03:01:31;8.95;;;5.40;;
76202;SDS011;64985;46.364;17.008;2023-02-26T03:04:36;10.40;;;5.25;;
76202;SDS011;64985;46.364;17.008;2023-02-26T03:07:50;9.48;;;5.25;;
76202;SDS011;64985;46.364;17.008;2023-02-26T03:11:07;9.52;;;5.20;;
76202;SDS011;64985;46.364;17.008;2023-02-26T03:14:09;9.63;;;5.10;;
76202;SDS011;64985;46.364;17.008;2023-02-26T03:20:33;13.98;;;7.18;;
76202;SDS011;64985;46.364;17.008;2023-02-26T03:23:49;17.90;;;7.88;;
76202;SDS011;64985;46.364;17.008;2023-02-26T03:30:29;14.23;;;7.00;;
76202;SDS011;64985;46.364;17.008;2023-02-26T03:36:53;15.55;;;7.15;;
76202;SDS011;64985;46.364;17.008;2023-02-26T03:40:24;17.15;;;7.38;;
76202;SDS011;64985;46.364;17.008;2023-02-26T03:46:34;10.88;;;6.07;;
76202;SDS011;64985;46.364;17.008;2023-02-26T03:49:47;10.70;;;6.03;;
76202;SDS011;64985;46.364;17.008;2023-02-26T03:53:15;9.20;;;5.47;;
76202;SDS011;64985;46.364;17.008;2023-02-26T03:56:44;17.85;;;8.43;;
76202;SDS011;64985;46.364;17.008;2023-02-26T03:59:48;41.42;;;15.38;;
76202;SDS011;64985;46.364;17.008;2023-02-26T04:02:55;38.28;;;15.15;;
76202;SDS011;64985;46.364;17.008;2023-02-26T04:06:08;35.88;;;14.85;;
76202;SDS011;64985;46.364;17.008;2023-02-26T04:09:10;34.08;;;12.40;;
76202;SDS011;64985;46.364;17.008;2023-02-26T04:12:23;30.33;;;13.23;;
76202;SDS011;64985;46.364;17.008;2023-02-26T04:15:27;30.42;;;12.10;;
76202;SDS011;64985;46.364;17.008;2023-02-26T04:18:29;25.85;;;11.20;;
76202;SDS011;64985;46.364;17.008;2023-02-26T04:21:32;25.15;;;9.95;;
76202;SDS011;64985;46.364;17.008;2023-02-26T04:24:34;17.23;;;8.20;;
76202;SDS011;64985;46.364;17.008;2023-02-26T04:27:37;16.20;;;8.00;;
76202;SDS011;64985;46.364;17.008;2023-02-26T04:30:39;16.95;;;8.32;;
76202;SDS011;64985;46.364;17.008;2023-02-26T04:33:41;17.98;;;8.10;;
76202;SDS011;64985;46.364;17.008;2023-02-26T04:36:43;14.93;;;7.80;;
76202;SDS011;64985;46.364;17.008;2023-02-26T04:39:45;15.90;;;7.80;;
76202;SDS011;64985;46.364;17.008;2023-02-26T04:42:47;15.60;;;7.13;;
76202;SDS011;64985;46.364;17.008;2023-02-26T04:45:50;14.02;;;6.93;;
76202;SDS011;64985;46.364;17.008;2023-02-26T04:48:52;13.95;;;6.72;;
76202;SDS011;64985;46.364;17.008;2023-02-26T04:51:55;12.55;;;6.65;;
76202;SDS011;64985;46.364;17.008;2023-02-26T04:54:57;13.38;;;6.72;;
76202;SDS011;64985;46.364;17.008;2023-02-26T04:57:59;13.63;;;6.97;;
76202;SDS011;64985;46.364;17.008;2023-02-26T05:01:01;12.45;;;6.72;;
76202;SDS011;64985;46.364;17.008;2023-02-26T05:04:04;13.57;;;6.35;;
76202;SDS011;64985;46.364;17.008;2023-02-26T05:07:06;14.13;;;7.00;;
76202;SDS011;64985;46.364;17.008;2023-02-26T05:10:08;11.88;;;6.57;;
76202;SDS011;64985;46.364;17.008;2023-02-26T05:13:12;12.90;;;6.43;;
76202;SDS011;64985;46.364;17.008;2023-02-26T05:16:14;12.40;;;6.68;;
76202;SDS011;64985;46.364;17.008;2023-02-26T05:19:17;12.50;;;6.85;;
76202;SDS011;64985;46.364;17.008;2023-02-26T05:22:19;14.45;;;7.55;;
76202;SDS011;64985;46.364;17.008;2023-02-26T05:25:21;15.75;;;8.10;;
76202;SDS011;64985;46.364;17.008;2023-02-26T05:28:24;18.70;;;8.65;;
76202;SDS011;64985;46.364;17.008;2023-02-26T05:31:28;18.58;;;8.77;;
76202;SDS011;64985;46.364;17.008;2023-02-26T05:34:30;20.92;;;10.48;;
76202;SDS011;64985;46.364;17.008;2023-02-26T05:37:32;24.42;;;10.40;;
76202;SDS011;64985;46.364;17.008;2023-02-26T05:40:35;31.88;;;15.52;;
76202;SDS011;64985;46.364;17.008;2023-02-26T05:43:37;28.60;;;14.20;;
76202;SDS011;64985;46.364;17.008;2023-02-26T05:46:39;24.25;;;12.35;;
76202;SDS011;64985;46.364;17.008;2023-02-26T05:49:42;22.92;;;10.65;;
76202;SDS011;64985;46.364;17.008;2023-02-26T05:52:44;18.30;;;9.43;;
76202;SDS011;64985;46.364;17.008;2023-02-26T05:55:46;20.52;;;10.02;;
76202;SDS011;64985;46.364;17.008;2023-02-26T05:58:48;20.92;;;10.38;;
76202;SDS011;64985;46.364;17.008;2023-02-26T06:01:50;21.20;;;9.88;;
76202;SDS011;64985;46.364;17.008;2023-02-26T06:04:53;17.70;;;9.20;;
76202;SDS011;64985;46.364;17.008;2023-02-26T06:07:56;18.38;;;8.93;;
76202;SDS011;64985;46.364;17.008;2023-02-26T06:10:58;19.35;;;10.20;;
76202;SDS011;64985;46.364;17.008;2023-02-26T06:14:00;22.25;;;10.85;;
76202;SDS011;64985;46.364;17.008;2023-02-26T06:17:03;21.08;;;11.25;;
76202;SDS011;64985;46.364;17.008;2023-02-26T06:20:06;26.17;;;12.23;;
76202;SDS011;64985;46.364;17.008;2023-02-26T06:23:09;26.23;;;12.18;;
76202;SDS011;64985;46.364;17.008;2023-02-26T06:26:11;24.92;;;13.50;;
76202;SDS011;64985;46.364;17.008;2023-02-26T06:29:13;26.65;;;13.75;;
76202;SDS011;64985;46.364;17.008;2023-02-26T06:32:16;27.52;;;13.93;;
76202;SDS011;64985;46.364;17.008;2023-02-26T06:35:18;24.25;;;12.68;;
76202;SDS011;64985;46.364;17.008;2023-02-26T06:38:20;30.25;;;15.57;;
76202;SDS011;64985;46.364;17.008;2023-02-26T06:41:22;30.55;;;15.57;;
76202;SDS011;64985;46.364;17.008;2023-02-26T06:44:25;29.98;;;15.77;;
76202;SDS011;64985;46.364;17.008;2023-02-26T06:47:27;28.88;;;15.02;;
76202;SDS011;64985;46.364;17.008;2023-02-26T06:50:29;24.08;;;12.63;;
76202;SDS011;64985;46.364;17.008;2023-02-26T06:53:32;20.33;;;10.55;;
76202;SDS011;64985;46.364;17.008;2023-02-26T06:56:34;18.75;;;9.50;;
76202;SDS011;64985;46.364;17.008;2023-02-26T06:59:36;19.80;;;10.05;;
76202;SDS011;64985;46.364;17.008;2023-02-26T07:02:38;19.15;;;9.20;;
76202;SDS011;64985;46.364;17.008;2023-02-26T07:05:40;18.05;;;9.13;;
76202;SDS011;64985;46.364;17.008;2023-02-26T07:08:43;17.42;;;9.27;;
76202;SDS011;64985;46.364;17.008;2023-02-26T07:11:45;19.70;;;10.30;;
76202;SDS011;64985;46.364;17.008;2023-02-26T07:14:47;15.48;;;8.57;;
76202;SDS011;64985;46.364;17.008;2023-02-26T07:17:49;15.68;;;8.55;;
76202;SDS011;64985;46.364;17.008;2023-02-26T07:20:51;16.50;;;8.02;;
76202;SDS011;64985;46.364;17.008;2023-02-26T07:23:53;17.17;;;9.95;;
76202;SDS011;64985;46.364;17.008;2023-02-26T07:26:55;19.17;;;10.88;;
76202;SDS011;64985;46.364;17.008;2023-02-26T07:29:58;13.23;;;7.72;;
76202;SDS011;64985;46.364;17.008;2023-02-26T07:33:00;15.82;;;8.18;;
76202;SDS011;64985;46.364;17.008;2023-02-26T07:36:03;15.63;;;9.18;;
76202;SDS011;64985;46.364;17.008;2023-02-26T07:39:06;15.50;;;8.80;;
76202;SDS011;64985;46.364;17.008;2023-02-26T07:42:08;14.75;;;8.60;;
76202;SDS011;64985;46.364;17.008;2023-02-26T07:45:10;17.08;;;8.65;;
76202;SDS011;64985;46.364;17.008;2023-02-26T07:48:13;13.18;;;7.65;;
76202;SDS011;64985;46.364;17.008;2023-02-26T07:51:18;12.32;;;7.53;;
76202;SDS011;64985;46.364;17.008;2023-02-26T07:54:20;14.95;;;8.48;;
76202;SDS011;64985;46.364;17.008;2023-02-26T07:57:22;13.55;;;7.50;;
76202;SDS011;64985;46.364;17.008;2023-02-26T08:00:24;13.60;;;7.32;;
76202;SDS011;64985;46.364;17.008;2023-02-26T08:03:27;13.85;;;8.65;;
76202;SDS011;64985;46.364;17.008;2023-02-26T08:06:29;15.02;;;7.95;;
76202;SDS011;64985;46.364;17.008;2023-02-26T08:09:31;12.73;;;7.45;;
76202;SDS011;64985;46.364;17.008;2023-02-26T08:12:33;11.90;;;7.28;;
76202;SDS011;64985;46.364;17.008;2023-02-26T08:15:37;13.13;;;7.68;;
76202;SDS011;64985;46.364;17.008;2023-02-26T08:18:39;10.38;;;6.60;;
76202;SDS011;64985;46.364;17.008;2023-02-26T08:21:41;10.38;;;6.25;;
76202;SDS011;64985;46.364;17.008;2023-02-26T08:24:43;12.30;;;6.45;;
76202;SDS011;64985;46.364;17.008;2023-02-26T08:27:45;11.95;;;7.03;;
76202;SDS011;64985;46.364;17.008;2023-02-26T08:30:51;11.57;;;6.97;;
76202;SDS011;64985;46.364;17.008;2023-02-26T08:33:54;11.60;;;6.47;;
76202;SDS011;64985;46.364;17.008;2023-02-26T08:36:56;9.68;;;5.93;;
76202;SDS011;64985;46.364;17.008;2023-02-26T08:39:58;12.02;;;6.90;;
76202;SDS011;64985;46.364;17.008;2023-02-26T08:43:00;14.48;;;7.88;;
76202;SDS011;64985;46.364;17.008;2023-02-26T08:46:04;14.15;;;7.28;;
76202;SDS011;64985;46.364;17.008;2023-02-26T08:49:06;14.93;;;8.40;;
76202;SDS011;64985;46.364;17.008;2023-02-26T08:52:08;12.35;;;7.05;;
76202;SDS011;64985;46.364;17.008;2023-02-26T08:55:11;11.43;;;7.07;;
76202;SDS011;64985;46.364;17.008;2023-02-26T08:58:17;11.05;;;6.82;;
76202;SDS011;64985;46.364;17.008;2023-02-26T09:01:20;11.90;;;6.72;;
76202;SDS011;64985;46.364;17.008;2023-02-26T09:04:22;13.13;;;7.72;;
76202;SDS011;64985;46.364;17.008;2023-02-26T09:07:25;14.02;;;8.45;;
76202;SDS011;64985;46.364;17.008;2023-02-26T09:10:27;11.25;;;7.15;;
76202;SDS011;64985;46.364;17.008;2023-02-26T09:13:29;14.43;;;8.43;;
76202;SDS011;64985;46.364;17.008;2023-02-26T09:16:31;12.48;;;7.43;;
76202;SDS011;64985;46.364;17.008;2023-02-26T09:19:37;11.48;;;7.45;;
76202;SDS011;64985;46.364;17.008;2023-02-26T09:22:39;10.85;;;7.05;;
76202;SDS011;64985;46.364;17.008;2023-02-26T09:25:42;12.43;;;7.45;;
76202;SDS011;64985;46.364;17.008;2023-02-26T09:28:44;12.77;;;7.85;;
76202;SDS011;64985;46.364;17.008;2023-02-26T09:31:46;12.73;;;7.65;;
76202;SDS011;64985;46.364;17.008;2023-02-26T09:34:49;11.73;;;7.55;;
76202;SDS011;64985;46.364;17.008;2023-02-26T09:37:51;12.18;;;7.53;;
76202;SDS011;64985;46.364;17.008;2023-02-26T09:40:55;10.05;;;6.15;;
76202;SDS011;64985;46.364;17.008;2023-02-26T09:47:21;12.10;;;7.53;;
76202;SDS011;64985;46.364;17.008;2023-02-26T09:50:31;11.65;;;7.18;;
76202;SDS011;64985;46.364;17.008;2023-02-26T09:53:41;10.93;;;6.68;;
76202;SDS011;64985;46.364;17.008;2023-02-26T09:56:44;11.40;;;7.05;;
76202;SDS011;64985;46.364;17.008;2023-02-26T09:59:48;11.15;;;6.78;;
76202;SDS011;64985;46.364;17.008;2023-02-26T10:02:54;10.90;;;6.88;;
76202;SDS011;64985;46.364;17.008;2023-02-26T10:06:24;13.75;;;7.90;;
76202;SDS011;64985;46.364;17.008;2023-02-26T10:10:14;13.55;;;7.93;;
76202;SDS011;64985;46.364;17.008;2023-02-26T10:12:57;13.45;;;8.27;;
76202;SDS011;64985;46.364;17.008;2023-02-26T10:16:03;12.00;;;7.53;;
76202;SDS011;64985;46.364;17.008;2023-02-26T10:19:22;15.23;;;9.43;;
76202;SDS011;64985;46.364;17.008;2023-02-26T10:25:43;17.88;;;9.35;;
76202;SDS011;64985;46.364;17.008;2023-02-26T10:36:13;11.13;;;7.10;;
76202;SDS011;64985;46.364;17.008;2023-02-26T10:39:28;9.65;;;6.63;;
76202;SDS011;64985;46.364;17.008;2023-02-26T10:42:42;10.90;;;6.95;;
76202;SDS011;64985;46.364;17.008;2023-02-26T10:53:07;10.10;;;6.22;;
76202;SDS011;64985;46.364;17.008;2023-02-26T10:56:14;10.57;;;6.75;;
76202;SDS011;64985;46.364;17.008;2023-02-26T10:59:20;9.52;;;6.43;;
76202;SDS011;64985;46.364;17.008;2023-02-26T11:02:35;9.35;;;5.43;;
76202;SDS011;64985;46.364;17.008;2023-02-26T11:05:42;9.48;;;6.07;;
76202;SDS011;64985;46.364;17.008;2023-02-26T11:08:46;9.32;;;6.38;;
76202;SDS011;64985;46.364;17.008;2023-02-26T11:11:56;14.43;;;9.25;;
76202;SDS011;64985;46.364;17.008;2023-02-26T11:15:02;12.85;;;7.95;;
76202;SDS011;64985;46.364;17.008;2023-02-26T11:18:07;14.05;;;8.85;;
76202;SDS011;64985;46.364;17.008;2023-02-26T11:21:18;16.20;;;10.23;;
76202;SDS011;64985;46.364;17.008;2023-02-26T11:24:29;13.82;;;7.95;;
76202;SDS011;64985;46.364;17.008;2023-02-26T11:27:37;10.48;;;6.35;;
76202;SDS011;64985;46.364;17.008;2023-02-26T11:30:41;13.20;;;8.30;;
76202;SDS011;64985;46.364;17.008;2023-02-26T11:33:50;11.63;;;7.28;;
76202;SDS011;64985;46.364;17.008;2023-02-26T11:37:06;13.07;;;7.43;;
76202;SDS011;64985;46.364;17.008;2023-02-26T11:40:21;9.93;;;5.78;;
76202;SDS011;64985;46.364;17.008;2023-02-26T11:43:33;8.63;;;5.40;;
76202;SDS011;64985;46.364;17.008;2023-02-26T11:46:52;9.02;;;5.82;;
76202;SDS011;64985;46.364;17.008;2023-02-26T11:50:00;8.88;;;5.82;;
76202;SDS011;64985;46.364;17.008;2023-02-26T11:53:09;9.83;;;6.20;;
76202;SDS011;64985;46.364;17.008;2023-02-26T11:56:26;9.35;;;5.65;;
76202;SDS011;64985;46.364;17.008;2023-02-26T11:59:37;12.10;;;6.38;;
76202;SDS011;64985;46.364;17.008;2023-02-26T12:02:42;9.15;;;6.35;;
76202;SDS011;64985;46.364;17.008;2023-02-26T12:05:44;8.20;;;5.30;;
76202;SDS011;64985;46.364;17.008;2023-02-26T12:08:47;8.23;;;4.88;;
76202;SDS011;64985;46.364;17.008;2023-02-26T12:15:00;7.28;;;4.63;;
76202;SDS011;64985;46.364;17.008;2023-02-26T12:22:16;8.20;;;5.78;;
76202;SDS011;64985;46.364;17.008;2023-02-26T12:41:21;11.45;;;5.65;;
76202;SDS011;64985;46.364;17.008;2023-02-26T12:54:36;6.80;;;4.38;;
76202;SDS011;64985;46.364;17.008;2023-02-26T13:14:36;5.65;;;3.65;;
76202;SDS011;64985;46.364;17.008;2023-02-26T13:21:14;5.15;;;3.72;;
76202;SDS011;64985;46.364;17.008;2023-02-26T13:24:49;6.45;;;3.90;;
76202;SDS011;64985;46.364;17.008;2023-02-26T13:27:56;5.60;;;3.80;;
76202;SDS011;64985;46.364;17.008;2023-02-26T13:31:04;4.95;;;3.60;;
76202;SDS011;64985;46.364;17.008;2023-02-26T13:34:18;5.18;;;3.50;;
76202;SDS011;64985;46.364;17.008;2023-02-26T13:37:39;7.05;;;3.80;;
76202;SDS011;64985;46.364;17.008;2023-02-26T13:40:49;5.18;;;3.50;;
76202;SDS011;64985;46.364;17.008;2023-02-26T13:53:51;4.75;;;3.28;;
76202;SDS011;64985;46.364;17.008;2023-02-26T13:57:09;4.32;;;3.10;;
76202;SDS011;64985;46.364;17.008;2023-02-26T14:00:24;8.05;;;4.18;;
76202;SDS011;64985;46.364;17.008;2023-02-26T14:03:35;5.32;;;3.30;;
76202;SDS011;64985;46.364;17.008;2023-02-26T14:06:59;4.70;;;2.90;;
76202;SDS011;64985;46.364;17.008;2023-02-26T14:10:30;4.40;;;3.10;;
76202;SDS011;64985;46.364;17.008;2023-02-26T14:17:36;4.55;;;3.33;;
76202;SDS011;64985;46.364;17.008;2023-02-26T14:20:50;4.75;;;3.17;;
76202;SDS011;64985;46.364;17.008;2023-02-26T14:23:57;5.40;;;3.40;;
76202;SDS011;64985;46.364;17.008;2023-02-26T14:30:18;6.32;;;3.80;;
76202;SDS011;64985;46.364;17.008;2023-02-26T14:33:30;5.07;;;2.70;;
76202;SDS011;64985;46.364;17.008;2023-02-26T14:36:45;5.73;;;3.40;;
76202;SDS011;64985;46.364;17.008;2023-02-26T14:42:59;9.63;;;4.82;;
76202;SDS011;64985;46.364;17.008;2023-02-26T14:46:04;8.63;;;4.40;;
76202;SDS011;64985;46.364;17.008;2023-02-26T14:49:13;8.88;;;5.15;;
76202;SDS011;64985;46.364;17.008;2023-02-26T14:56:00;10.05;;;5.32;;
76202;SDS011;64985;46.364;17.008;2023-02-26T15:12:33;6.63;;;4.00;;
76202;SDS011;64985;46.364;17.008;2023-02-26T15:15:55;4.90;;;3.22;;
76202;SDS011;64985;46.364;17.008;2023-02-26T15:19:11;6.20;;;3.58;;
76202;SDS011;64985;46.364;17.008;2023-02-26T15:26:00;5.25;;;3.35;;
76202;SDS011;64985;46.364;17.008;2023-02-26T15:29:05;6.28;;;3.50;;
76202;SDS011;64985;46.364;17.008;2023-02-26T15:35:20;6.47;;;3.97;;
76202;SDS011;64985;46.364;17.008;2023-02-26T15:38:24;5.95;;;3.88;;
76202;SDS011;64985;46.364;17.008;2023-02-26T15:41:28;5.68;;;3.30;;
76202;SDS011;64985;46.364;17.008;2023-02-26T15:44:34;5.43;;;3.03;;
76202;SDS011;64985;46.364;17.008;2023-02-26T15:47:43;6.85;;;3.70;;
76202;SDS011;64985;46.364;17.008;2023-02-26T15:50:47;8.45;;;4.20;;
76202;SDS011;64985;46.364;17.008;2023-02-26T15:53:55;5.07;;;3.28;;
76202;SDS011;64985;46.364;17.008;2023-02-26T15:57:03;4.32;;;2.90;;
76202;SDS011;64985;46.364;17.008;2023-02-26T16:00:13;6.05;;;3.22;;
76202;SDS011;64985;46.364;17.008;2023-02-26T16:03:26;3.70;;;2.80;;
76202;SDS011;64985;46.364;17.008;2023-02-26T16:06:37;5.88;;;3.53;;
76202;SDS011;64985;46.364;17.008;2023-02-26T16:09:46;6.70;;;3.38;;
76202;SDS011;64985;46.364;17.008;2023-02-26T16:16:17;7.78;;;2.90;;
76202;SDS011;64985;46.364;17.008;2023-02-26T16:22:47;6.75;;;3.55;;
76202;SDS011;64985;46.364;17.008;2023-02-26T16:25:58;4.80;;;2.97;;
76202;SDS011;64985;46.364;17.008;2023-02-26T16:29:14;5.47;;;2.70;;
76202;SDS011;64985;46.364;17.008;2023-02-26T16:32:20;3.75;;;2.42;;
76202;SDS011;64985;46.364;17.008;2023-02-26T16:35:27;4.97;;;2.80;;
76202;SDS011;64985;46.364;17.008;2023-02-26T16:38:44;3.90;;;2.50;;
76202;SDS011;64985;46.364;17.008;2023-02-26T16:45:24;5.35;;;3.13;;
76202;SDS011;64985;46.364;17.008;2023-02-26T16:48:44;4.28;;;2.80;;
76202;SDS011;64985;46.364;17.008;2023-02-26T16:51:49;7.80;;;4.30;;
76202;SDS011;64985;46.364;17.008;2023-02-26T16:54:57;5.07;;;2.80;;
76202;SDS011;64985;46.364;17.008;2023-02-26T16:58:06;5.80;;;3.25;;
76202;SDS011;64985;46.364;17.008;2023-02-26T17:01:15;4.53;;;2.90;;
76202;SDS011;64985;46.364;17.008;2023-02-26T17:04:24;5.60;;;2.53;;
76202;SDS011;64985;46.364;17.008;2023-02-26T17:07:33;4.80;;;2.70;;
76202;SDS011;64985;46.364;17.008;2023-02-26T17:10:39;6.57;;;2.42;;
76202;SDS011;64985;46.364;17.008;2023-02-26T17:13:56;6.13;;;2.83;;
76202;SDS011;64985;46.364;17.008;2023-02-26T17:17:10;4.80;;;2.88;;
76202;SDS011;64985;46.364;17.008;2023-02-26T17:20:15;4.78;;;2.72;;
76202;SDS011;64985;46.364;17.008;2023-02-26T17:23:19;5.40;;;2.75;;
76202;SDS011;64985;46.364;17.008;2023-02-26T17:26:25;6.53;;;3.50;;
76202;SDS011;64985;46.364;17.008;2023-02-26T17:29:31;6.03;;;3.17;;
76202;SDS011;64985;46.364;17.008;2023-02-26T17:32:40;6.38;;;4.00;;
76202;SDS011;64985;46.364;17.008;2023-02-26T17:35:45;13.30;;;7.40;;
76202;SDS011;64985;46.364;17.008;2023-02-26T17:38:51;7.60;;;4.45;;
76202;SDS011;64985;46.364;17.008;2023-02-26T17:41:55;9.05;;;5.25;;
76202;SDS011;64985;46.364;17.008;2023-02-26T17:45:00;9.65;;;5.65;;
76202;SDS011;64985;46.364;17.008;2023-02-26T17:48:04;11.93;;;5.95;;
76202;SDS011;64985;46.364;17.008;2023-02-26T17:51:07;9.65;;;5.43;;
76202;SDS011;64985;46.364;17.008;2023-02-26T17:54:16;8.07;;;4.38;;
76202;SDS011;64985;46.364;17.008;2023-02-26T17:57:19;8.23;;;4.57;;
76202;SDS011;64985;46.364;17.008;2023-02-26T18:00:24;9.43;;;5.43;;
76202;SDS011;64985;46.364;17.008;2023-02-26T18:03:28;12.88;;;6.85;;
76202;SDS011;64985;46.364;17.008;2023-02-26T18:06:34;11.43;;;6.22;;
76202;SDS011;64985;46.364;17.008;2023-02-26T18:09:38;12.25;;;6.93;;
76202;SDS011;64985;46.364;17.008;2023-02-26T18:12:43;11.32;;;6.28;;
76202;SDS011;64985;46.364;17.008;2023-02-26T18:15:48;10.90;;;4.57;;
76202;SDS011;64985;46.364;17.008;2023-02-26T18:18:52;8.00;;;4.30;;
76202;SDS011;64985;46.364;17.008;2023-02-26T18:21:55;8.68;;;4.50;;
76202;SDS011;64985;46.364;17.008;2023-02-26T18:24:59;7.15;;;4.03;;
76202;SDS011;64985;46.364;17.008;2023-02-26T18:28:02;9.88;;;5.10;;
76202;SDS011;64985;46.364;17.008;2023-02-26T18:31:09;10.52;;;5.65;;
76202;SDS011;64985;46.364;17.008;2023-02-26T18:34:14;11.40;;;5.10;;
76202;SDS011;64985;46.364;17.008;2023-02-26T18:37:18;10.18;;;5.43;;
76202;SDS011;64985;46.364;17.008;2023-02-26T18:40:24;12.20;;;6.03;;
76202;SDS011;64985;46.364;17.008;2023-02-26T18:43:29;13.18;;;6.95;;
76202;SDS011;64985;46.364;17.008;2023-02-26T18:46:32;13.07;;;7.00;;
76202;SDS011;64985;46.364;17.008;2023-02-26T18:49:39;14.27;;;7.00;;
76202;SDS011;64985;46.364;17.008;2023-02-26T18:52:43;12.20;;;6.15;;
76202;SDS011;64985;46.364;17.008;2023-02-26T18:55:46;12.27;;;6.82;;
76202;SDS011;64985;46.364;17.008;2023-02-26T18:58:53;12.93;;;7.22;;
76202;SDS011;64985;46.364;17.008;2023-02-26T19:01:58;15.18;;;7.80;;
76202;SDS011;64985;46.364;17.008;2023-02-26T19:05:03;12.48;;;6.40;;
76202;SDS011;64985;46.364;17.008;2023-02-26T19:08:08;12.00;;;6.68;;
76202;SDS011;64985;46.364;17.008;2023-02-26T19:11:12;10.88;;;5.75;;
76202;SDS011;64985;46.364;17.008;2023-02-26T19:14:15;12.20;;;6.05;;
76202;SDS011;64985;46.364;17.008;2023-02-26T19:17:19;11.82;;;6.10;;
76202;SDS011;64985;46.364;17.008;2023-02-26T19:20:22;12.52;;;6.53;;
76202;SDS011;64985;46.364;17.008;2023-02-26T19:23:26;12.40;;;6.95;;
76202;SDS011;64985;46.364;17.008;2023-02-26T19:26:31;11.15;;;6.07;;
76202;SDS011;64985;46.364;17.008;2023-02-26T19:29:35;11.20;;;5.68;;
76202;SDS011;64985;46.364;17.008;2023-02-26T19:32:40;8.57;;;5.22;;
76202;SDS011;64985;46.364;17.008;2023-02-26T19:35:48;11.20;;;5.80;;
76202;SDS011;64985;46.364;17.008;2023-02-26T19:38:53;10.30;;;5.80;;
76202;SDS011;64985;46.364;17.008;2023-02-26T19:41:57;10.10;;;5.13;;
76202;SDS011;64985;46.364;17.008;2023-02-26T19:45:00;8.75;;;5.00;;
76202;SDS011;64985;46.364;17.008;2023-02-26T19:48:04;8.52;;;4.78;;
76202;SDS011;64985;46.364;17.008;2023-02-26T19:51:08;8.75;;;5.00;;
76202;SDS011;64985;46.364;17.008;2023-02-26T19:54:11;9.60;;;5.15;;
76202;SDS011;64985;46.364;17.008;2023-02-26T19:57:18;7.18;;;4.22;;
76202;SDS011;64985;46.364;17.008;2023-02-26T20:00:30;9.25;;;4.70;;
76202;SDS011;64985;46.364;17.008;2023-02-26T20:03:32;8.93;;;4.60;;
76202;SDS011;64985;46.364;17.008;2023-02-26T20:06:39;7.70;;;4.32;;
76202;SDS011;64985;46.364;17.008;2023-02-26T20:09:42;9.00;;;4.35;;
76202;SDS011;64985;46.364;17.008;2023-02-26T20:12:53;8.77;;;4.40;;
76202;SDS011;64985;46.364;17.008;2023-02-26T20:15:58;9.32;;;5.15;;
76202;SDS011;64985;46.364;17.008;2023-02-26T20:19:03;8.57;;;4.93;;
76202;SDS011;64985;46.364;17.008;2023-02-26T20:22:07;9.70;;;5.43;;
76202;SDS011;64985;46.364;17.008;2023-02-26T20:25:10;10.02;;;4.85;;
76202;SDS011;64985;46.364;17.008;2023-02-26T20:28:13;11.98;;;5.15;;
76202;SDS011;64985;46.364;17.008;2023-02-26T20:31:18;11.55;;;6.05;;
76202;SDS011;64985;46.364;17.008;2023-02-26T20:34:21;12.25;;;5.93;;
76202;SDS011;64985;46.364;17.008;2023-02-26T20:37:25;11.20;;;6.47;;
76202;SDS011;64985;46.364;17.008;2023-02-26T20:40:30;12.10;;;6.43;;
76202;SDS011;64985;46.364;17.008;2023-02-26T20:43:33;13.05;;;6.68;;
76202;SDS011;64985;46.364;17.008;2023-02-26T20:46:35;13.30;;;6.82;;
76202;SDS011;64985;46.364;17.008;2023-02-26T20:49:40;14.00;;;7.00;;
76202;SDS011;64985;46.364;17.008;2023-02-26T20:52:43;12.70;;;6.25;;
76202;SDS011;64985;46.364;17.008;2023-02-26T20:55:46;12.45;;;6.20;;
76202;SDS011;64985;46.364;17.008;2023-02-26T20:58:49;13.05;;;6.80;;
76202;SDS011;64985;46.364;17.008;2023-02-26T21:01:52;12.60;;;6.80;;
76202;SDS011;64985;46.364;17.008;2023-02-26T21:04:56;13.38;;;6.38;;
76202;SDS011;64985;46.364;17.008;2023-02-26T21:07:59;11.35;;;6.10;;
76202;SDS011;64985;46.364;17.008;2023-02-26T21:11:03;12.73;;;6.35;;
76202;SDS011;64985;46.364;17.008;2023-02-26T21:14:09;15.63;;;6.55;;